Terminal Aerodrome Forecast
Issued by NWS

Home | Current Version | Previous Version | Graphics & Text | Print | Product List | Glossary On
Versions: 1 2 3 4 5 6 7 8 9 10 11 12 13 14 15 16 17
000
FTUS43 KTOP 161700
TAFMHK
TAF
KMHK 161720Z 1618/1718 21026G36KT P6SM SCT150
     FM162200 25015G21KT P6SM BKN120
     FM162330 31013KT P6SM BKN100
     FM170500 36007KT P6SM BKN120=

USA.gov is the U.S. government's official web portal to all federal, state and local government web resources and services.